Time;durP1;ratioP1;P1;durP2;ratioP2;P2;SDS_P1;SDS_P2;PMS_P1;PMS_P2;Temp;Humidity;BMP_temperature;BMP_pressure;BME280_temperature;BME280_humidity;BME280_pressure;Samples;Min_cycle;Max_cycle;Signal;HPM_P1;HPM_P2
2022/10/09 00:01:00;;;;;;;;;;;11.50;99.90;;;;;;5079751;28;20036;-53
2022/10/09 00:03:27;;;;;;;13.15;4.35;;;11.60;99.90;;;;;;5089030;28;19962;-50
2022/10/09 00:05:54;;;;;;;8.95;4.63;;;11.50;99.90;;;;;;5095506;28;20482;-50
2022/10/09 00:08:20;;;;;;;13.48;5.70;;;11.60;99.90;;;;;;5094170;28;20040;-47
2022/10/09 00:10:47;;;;;;;10.15;5.35;;;11.60;99.90;;;;;;5100938;28;20090;-48
2022/10/09 00:13:14;;;;;;;9.77;5.63;;;11.50;99.90;;;;;;5102463;28;20561;-48
2022/10/09 00:15:43;;;;;;;9.15;4.68;;;11.50;99.90;;;;;;5104102;28;20515;-48
2022/10/09 00:18:13;;;;;;;10.63;4.80;;;11.60;99.90;;;;;;5089606;28;20040;-48
2022/10/09 00:20:43;;;;;;;10.63;4.75;;;11.60;99.90;;;;;;5092555;28;20044;-48
2022/10/09 00:23:13;;;;;;;9.70;4.18;;;11.50;99.90;;;;;;5098366;28;20701;-49
2022/10/09 00:25:53;;;;;;;13.95;4.30;;;11.60;99.90;;;;;;5103539;28;20633;-50
2022/10/09 00:28:21;;;;;;;9.32;4.15;;;11.60;99.90;;;;;;5091972;28;20032;-49
2022/10/09 00:30:49;;;;;;;8.88;3.95;;;11.60;99.90;;;;;;5092083;28;20035;-48
2022/10/09 00:33:16;;;;;;;9.18;3.28;;;11.50;99.90;;;;;;5092796;28;20084;-53
2022/10/09 00:35:42;;;;;;;8.00;3.53;;;11.40;99.90;;;;;;5082681;28;20094;-51
2022/10/09 00:38:10;;;;;;;6.47;3.60;;;11.40;99.90;;;;;;5092674;28;20060;-49
2022/10/09 00:40:37;;;;;;;13.43;3.92;;;11.40;99.90;;;;;;5096371;28;20092;-51
2022/10/09 00:43:09;;;;;;;9.40;3.50;;;11.40;99.90;;;;;;5102763;28;20137;-51
2022/10/09 00:45:36;;;;;;;6.57;3.30;;;11.40;99.90;;;;;;5083185;28;20059;-49
2022/10/09 00:48:06;;;;;;;10.15;4.22;;;11.40;99.90;;;;;;5096547;28;20036;-49
2022/10/09 00:50:43;;;;;;;12.15;3.75;;;11.30;99.90;;;;;;5091518;28;20062;-50
2022/10/09 00:53:14;;;;;;;7.18;3.55;;;11.30;99.90;;;;;;5090052;28;20064;-49
2022/10/09 00:55:42;;;;;;;11.82;4.05;;;11.30;99.90;;;;;;5099200;28;20063;-49
2022/10/09 00:58:10;;;;;;;;;;;11.40;99.90;;;;;;5102095;28;20554;-49
2022/10/09 01:00:38;;;;;;;6.85;3.58;;;11.30;99.90;;;;;;5103990;28;19966;-50
2022/10/09 01:03:05;;;;;;;10.52;3.47;;;11.30;99.90;;;;;;5089191;28;20456;-48
2022/10/09 01:06:16;;;;;;;13.20;3.67;;;11.20;99.90;;;;;;5098408;28;20071;-51
2022/10/09 01:09:00;;;;;;;11.00;3.40;;;11.20;99.90;;;;;;5009105;28;20081;-53
2022/10/09 01:11:34;;;;;;;14.32;4.22;;;11.20;99.90;;;;;;5008309;28;20663;-53
2022/10/09 01:14:32;;;;;;;8.50;3.95;;;11.20;99.90;;;;;;5069259;28;20471;-48
2022/10/09 01:17:21;;;;;;;9.45;4.05;;;11.30;99.90;;;;;;5080189;28;20844;-49
2022/10/09 01:20:06;;;;;;;9.35;4.95;;;11.30;99.90;;;;;;5088516;28;20113;-48
2022/10/09 01:23:11;;;;;;;15.52;4.53;;;11.30;99.90;;;;;;5090811;28;20078;-48
2022/10/09 01:25:44;;;;;;;8.00;4.68;;;11.30;99.90;;;;;;5090655;28;20156;-49
2022/10/09 01:28:13;;;;;;;13.15;5.22;;;11.30;99.90;;;;;;5092138;28;20079;-51
2022/10/09 01:30:41;;;;;;;9.93;5.18;;;11.20;99.90;;;;;;5092778;28;20475;-49
2022/10/09 01:33:09;;;;;;;18.02;5.05;;;11.30;99.90;;;;;;5099911;28;20043;-49
2022/10/09 01:35:37;;;;;;;11.70;4.60;;;11.30;99.90;;;;;;5103850;28;20063;-49
2022/10/09 01:38:05;;;;;;;10.70;4.10;;;11.30;99.90;;;;;;5087394;28;20075;-52
2022/10/09 01:40:33;;;;;;;6.57;3.42;;;11.30;99.90;;;;;;5092203;28;20067;-50
2022/10/09 01:43:00;;;;;;;7.57;3.90;;;11.20;99.90;;;;;;5091661;28;20063;-52
2022/10/09 01:45:37;;;;;;;14.07;4.13;;;11.20;99.90;;;;;;5086572;28;20086;-49
2022/10/09 01:48:04;;;;;;;7.13;3.72;;;11.30;99.90;;;;;;5091085;28;20083;-50
2022/10/09 01:50:33;;;;;;;;;;;11.20;99.90;;;;;;5092328;28;20044;-48
2022/10/09 01:53:05;;;;;;;9.23;3.47;;;11.20;99.90;;;;;;5090490;28;20357;-48
2022/10/09 01:55:40;;;;;;;10.60;4.28;;;11.20;99.90;;;;;;5082263;28;20068;-49
2022/10/09 01:58:17;;;;;;;12.90;4.10;;;11.10;99.90;;;;;;5107625;28;20082;-50
2022/10/09 02:00:57;;;;;;;9.77;4.57;;;11.20;99.90;;;;;;5093933;28;20043;-49
2022/10/09 02:03:25;;;;;;;7.57;4.35;;;11.20;99.90;;;;;;5097742;28;20052;-48
2022/10/09 02:05:54;;;;;;;10.27;4.07;;;11.20;99.90;;;;;;5090657;28;20119;-54
2022/10/09 02:08:23;;;;;;;8.98;4.60;;;11.20;99.90;;;;;;5090093;28;20071;-51
2022/10/09 02:10:55;;;;;;;9.25;4.30;;;11.20;99.90;;;;;;5089537;28;20123;-48
2022/10/09 02:13:22;;;;;;;8.50;4.82;;;11.20;99.90;;;;;;5077754;28;20072;-49
2022/10/09 02:15:59;;;;;;;;;;;11.20;99.90;;;;;;5087364;28;20040;-47
2022/10/09 02:18:42;;;;;;;11.50;5.30;;;11.20;99.90;;;;;;5081682;28;19920;-48
2022/10/09 02:21:14;;;;;;;16.08;5.25;;;11.20;99.90;;;;;;5106659;28;20071;-51
2022/10/09 02:23:43;;;;;;;12.85;5.22;;;11.10;99.90;;;;;;5111692;28;20072;-51
2022/10/09 02:26:11;;;;;;;10.23;5.00;;;11.10;99.90;;;;;;5103955;28;20449;-48
2022/10/09 02:28:39;;;;;;;9.18;5.38;;;11.10;99.90;;;;;;5098570;22;20135;-53
2022/10/09 02:31:18;;;;;;;14.02;4.85;;;11.10;99.90;;;;;;5090059;28;20055;-51
2022/10/09 02:34:07;;;;;;;10.05;5.20;;;11.10;99.90;;;;;;5104396;28;20134;-52
2022/10/09 02:36:34;;;;;;;9.03;4.80;;;11.00;99.90;;;;;;5093094;28;20126;-51
2022/10/09 02:39:02;;;;;;;11.60;5.40;;;11.00;99.90;;;;;;5101016;28;20040;-54
2022/10/09 02:41:29;;;;;;;14.13;5.07;;;11.00;99.90;;;;;;5110934;28;20063;-53
2022/10/09 02:43:55;;;;;;;14.75;5.68;;;11.00;99.90;;;;;;5110442;28;20111;-51
2022/10/09 02:46:23;;;;;;;13.85;5.07;;;11.00;99.90;;;;;;5106898;28;20123;-52
2022/10/09 02:48:50;;;;;;;8.32;5.10;;;11.00;99.90;;;;;;5111204;28;20096;-53
2022/10/09 02:51:17;;;;;;;14.68;5.65;;;11.00;99.90;;;;;;5096231;28;20066;-52
2022/10/09 02:53:44;;;;;;;12.93;5.68;;;11.00;99.90;;;;;;5110760;28;20048;-52
2022/10/09 02:56:11;;;;;;;13.10;5.70;;;11.00;99.90;;;;;;5110034;28;20070;-52
2022/10/09 02:58:38;;;;;;;10.98;6.30;;;11.00;99.90;;;;;;5101769;28;20122;-52
2022/10/09 03:01:05;;;;;;;10.25;5.68;;;11.10;99.90;;;;;;5110345;28;20032;-51
2022/10/09 03:03:32;;;;;;;12.50;5.63;;;11.10;99.90;;;;;;5110154;28;20093;-54
2022/10/09 03:06:08;;;;;;;13.60;5.15;;;11.10;99.90;;;;;;5113618;28;20082;-54
2022/10/09 03:08:36;;;;;;;15.93;6.60;;;11.10;99.90;;;;;;5109649;27;20150;-52
2022/10/09 03:11:03;;;;;;;11.52;6.18;;;11.10;99.90;;;;;;5107924;28;20100;-53
2022/10/09 03:13:31;;;;;;;12.68;6.78;;;11.10;99.90;;;;;;5109731;28;20070;-51
2022/10/09 03:16:05;;;;;;;15.68;5.97;;;11.10;99.90;;;;;;5111415;28;20560;-55
2022/10/09 03:18:32;;;;;;;16.90;5.53;;;11.10;99.90;;;;;;5110190;28;20043;-52
2022/10/09 03:20:59;;;;;;;10.85;5.28;;;11.10;99.90;;;;;;5104164;28;20063;-53
2022/10/09 03:23:26;;;;;;;10.00;5.63;;;11.10;99.90;;;;;;5108351;28;20079;-53
2022/10/09 03:26:01;;;;;;;13.80;7.03;;;11.10;99.90;;;;;;5111467;28;20047;-51
2022/10/09 03:28:28;;;;;;;14.60;6.28;;;11.10;99.90;;;;;;5109870;28;20551;-52
2022/10/09 03:30:55;;;;;;;13.32;6.70;;;11.10;99.90;;;;;;5111600;28;20040;-53
2022/10/09 03:33:22;;;;;;;34.00;9.45;;;11.00;99.90;;;;;;5108473;28;20111;-53
2022/10/09 03:35:49;;;;;;;19.13;9.05;;;11.00;99.90;;;;;;5110859;28;20067;-53
2022/10/09 03:38:16;;;;;;;18.15;8.15;;;11.10;99.90;;;;;;5105066;28;20047;-52
2022/10/09 03:40:43;;;;;;;34.47;9.55;;;11.10;99.90;;;;;;5111348;28;20456;-54
2022/10/09 03:43:09;;;;;;;22.02;9.82;;;11.10;99.90;;;;;;5110100;28;20123;-53
2022/10/09 03:45:41;;;;;;;17.83;9.55;;;11.10;99.90;;;;;;5110736;28;20079;-53
2022/10/09 03:48:09;;;;;;;36.30;10.80;;;11.10;99.90;;;;;;5107565;28;20468;-54
2022/10/09 03:50:37;;;;;;;33.47;10.43;;;11.10;99.90;;;;;;5109536;28;20154;-52
2022/10/09 03:53:05;;;;;;;21.50;10.25;;;11.10;99.90;;;;;;5106609;28;20488;-52
2022/10/09 03:55:32;;;;;;;22.67;10.77;;;11.10;99.90;;;;;;5090093;28;20466;-51
2022/10/09 03:57:59;;;;;;;22.77;10.38;;;11.20;99.90;;;;;;5104263;28;20151;-54
2022/10/09 04:00:26;;;;;;;23.50;11.40;;;11.20;99.90;;;;;;5110131;28;20072;-52
2022/10/09 04:02:53;;;;;;;19.50;10.27;;;11.20;99.90;;;;;;5086052;28;20064;-51
2022/10/09 04:05:20;;;;;;;27.42;11.15;;;11.20;99.90;;;;;;5110330;28;20047;-51
2022/10/09 04:07:46;;;;;;;24.42;12.20;;;11.20;99.90;;;;;;5104775;28;20135;-53
2022/10/09 04:10:13;;;;;;;25.50;11.25;;;11.20;99.90;;;;;;5110609;28;20067;-52
2022/10/09 04:12:40;;;;;;;20.88;10.73;;;11.20;99.90;;;;;;5110470;28;20151;-53
2022/10/09 04:15:08;;;;;;;19.17;9.82;;;11.20;99.90;;;;;;5108976;28;20106;-54
2022/10/09 04:17:35;;;;;;;21.10;11.00;;;11.20;99.90;;;;;;5104522;28;20139;-53
2022/10/09 04:20:03;;;;;;;19.65;10.85;;;11.20;99.90;;;;;;5110590;28;20063;-52
2022/10/09 04:22:29;;;;;;;;;;;11.20;99.90;;;;;;5110501;28;20085;-55
2022/10/09 04:24:56;;;;;;;33.70;12.77;;;11.20;99.90;;;;;;5098646;28;19968;-52
2022/10/09 04:27:23;;;;;;;24.23;11.15;;;11.20;99.90;;;;;;5109218;28;20134;-52
2022/10/09 04:29:49;;;;;;;23.83;11.93;;;11.20;99.90;;;;;;5091969;28;20119;-52
2022/10/09 04:32:16;;;;;;;25.75;11.57;;;11.20;99.90;;;;;;5107122;28;20066;-53
2022/10/09 04:34:43;;;;;;;32.92;12.93;;;11.20;99.90;;;;;;5112489;28;20138;-54
2022/10/09 04:37:09;;;;;;;23.33;11.70;;;11.20;99.90;;;;;;5113255;28;20135;-52
2022/10/09 04:39:36;;;;;;;43.72;12.57;;;11.20;99.90;;;;;;5113387;28;20104;-51
2022/10/09 04:42:05;;;;;;;26.55;11.70;;;11.20;99.90;;;;;;5104831;28;20059;-51
2022/10/09 04:44:31;;;;;;;23.23;12.70;;;11.10;99.90;;;;;;5104287;28;20104;-52
2022/10/09 04:46:58;;;;;;;30.23;13.23;;;11.10;99.90;;;;;;5111103;28;20459;-52
2022/10/09 04:49:25;;;;;;;32.10;14.38;;;11.10;99.90;;;;;;5112318;28;20116;-51
2022/10/09 04:51:51;;;;;;;24.75;13.40;;;11.10;99.90;;;;;;5113495;28;20078;-51
2022/10/09 04:54:18;;;;;;;30.40;13.30;;;11.10;99.90;;;;;;5112541;28;20503;-52
2022/10/09 04:56:45;;;;;;;31.42;14.30;;;11.10;99.90;;;;;;5108479;28;20067;-53
2022/10/09 04:59:11;;;;;;;24.80;14.32;;;11.00;99.90;;;;;;5112676;28;20043;-52
2022/10/09 05:01:38;;;;;;;31.35;14.55;;;11.00;99.90;;;;;;5108324;27;20377;-52
2022/10/09 05:04:05;;;;;;;40.65;14.43;;;11.00;99.90;;;;;;5127750;27;20491;-51
2022/10/09 05:06:31;;;;;;;35.92;14.38;;;11.00;99.90;;;;;;5113043;28;20090;-52
2022/10/09 05:08:58;;;;;;;33.35;15.10;;;10.90;99.90;;;;;;5112838;28;20063;-51
2022/10/09 05:11:25;;;;;;;32.65;14.30;;;10.90;99.90;;;;;;5112785;28;20114;-53
2022/10/09 05:13:56;;;;;;;40.05;15.40;;;10.90;99.90;;;;;;5103296;28;20134;-52
2022/10/09 05:16:26;;;;;;;32.22;14.77;;;10.80;99.90;;;;;;5113432;28;20075;-55
2022/10/09 05:18:55;;;;;;;36.92;14.30;;;10.80;99.90;;;;;;5108585;28;20047;-52
2022/10/09 05:21:23;;;;;;;31.92;14.18;;;10.70;99.90;;;;;;5093823;28;20093;-51
2022/10/09 05:23:52;;;;;;;30.70;14.55;;;10.70;99.90;;;;;;5111398;28;20055;-54
2022/10/09 05:26:21;;;;;;;24.33;14.25;;;10.60;99.90;;;;;;5104634;28;20115;-51
2022/10/09 05:28:47;;;;;;;29.48;13.30;;;10.60;99.90;;;;;;5111140;28;20083;-51
2022/10/09 05:31:24;;;;;;;26.85;13.98;;;10.60;99.90;;;;;;5108059;28;20054;-52
2022/10/09 05:33:52;;;;;;;31.13;14.50;;;10.60;99.90;;;;;;5112005;28;20234;-51
2022/10/09 05:36:20;;;;;;;29.30;13.25;;;10.60;99.90;;;;;;5112179;28;20075;-53
2022/10/09 05:38:47;;;;;;;24.13;12.55;;;10.60;99.90;;;;;;5106726;28;20048;-54
2022/10/09 05:41:15;;;;;;;25.25;12.95;;;10.60;99.90;;;;;;5094411;28;20070;-51
2022/10/09 05:43:43;;;;;;;29.33;13.10;;;10.60;99.90;;;;;;5108720;28;20548;-52
2022/10/09 05:46:16;;;;;;;29.65;12.68;;;10.70;99.90;;;;;;5103323;28;20504;-51
2022/10/09 05:48:45;;;;;;;25.13;12.10;;;10.50;99.90;;;;;;5108587;28;20126;-55
2022/10/09 05:51:18;;;;;;;23.98;12.85;;;10.70;99.90;;;;;;5111882;28;20078;-52
2022/10/09 05:53:46;;;;;;;26.33;12.50;;;10.60;99.90;;;;;;5111778;28;20067;-51
2022/10/09 05:56:17;;;;;;;28.40;12.45;;;10.60;99.90;;;;;;5108396;28;20107;-51
2022/10/09 05:58:49;;;;;;;23.55;12.55;;;10.60;99.90;;;;;;5112014;28;20463;-51
2022/10/09 06:01:16;;;;;;;22.50;12.27;;;10.60;99.90;;;;;;5109196;28;20067;-53
2022/10/09 06:03:50;;;;;;;26.35;12.32;;;10.60;99.90;;;;;;5112108;27;20040;-52
2022/10/09 06:06:18;;;;;;;36.25;11.95;;;10.70;99.90;;;;;;5110652;28;20079;-54
2022/10/09 06:08:45;;;;;;;17.98;10.68;;;10.70;99.90;;;;;;5112627;28;20070;-53
2022/10/09 06:11:14;;;;;;;29.98;12.30;;;10.80;99.90;;;;;;5109442;28;20078;-51
2022/10/09 06:13:42;;;;;;;22.80;12.25;;;10.80;99.90;;;;;;5110163;28;20071;-54
2022/10/09 06:16:11;;;;;;;26.33;11.65;;;10.80;99.90;;;;;;5111072;28;20123;-54
2022/10/09 06:18:45;;;;;;;22.48;11.98;;;10.90;99.90;;;;;;5112274;28;20050;-51
2022/10/09 06:21:15;;;;;;;24.45;11.73;;;10.90;99.90;;;;;;5093214;28;20039;-51
2022/10/09 06:23:43;;;;;;;22.90;11.60;;;10.90;99.90;;;;;;5093431;28;20035;-53
2022/10/09 06:26:11;;;;;;;19.45;11.85;;;10.90;99.90;;;;;;5111151;28;20055;-55
2022/10/09 06:28:39;;;;;;;19.38;11.65;;;11.00;99.90;;;;;;5104181;28;20504;-53
2022/10/09 06:31:15;;;;;;;26.13;12.30;;;11.10;99.90;;;;;;5107595;28;20516;-52
2022/10/09 06:33:43;;;;;;;27.73;12.10;;;11.10;99.90;;;;;;5111456;28;20048;-51
2022/10/09 06:36:19;;;;;;;22.75;12.50;;;11.10;99.90;;;;;;5111306;28;20063;-55
2022/10/09 06:38:46;;;;;;;23.20;12.75;;;11.20;99.90;;;;;;5112034;28;20044;-53
2022/10/09 06:41:14;;;;;;;;;;;11.20;99.90;;;;;;5107468;28;20068;-51
2022/10/09 06:43:42;;;;;;;20.60;12.05;;;11.20;99.90;;;;;;5107006;28;19942;-53
2022/10/09 06:46:10;;;;;;;19.42;11.60;;;11.20;99.90;;;;;;5104801;28;20070;-54
2022/10/09 06:48:39;;;;;;;20.08;11.90;;;11.30;99.90;;;;;;5111330;28;20048;-51
2022/10/09 06:51:14;;;;;;;28.85;12.68;;;11.30;99.90;;;;;;5111317;28;20070;-54
2022/10/09 06:53:43;;;;;;;22.52;12.98;;;11.30;99.90;;;;;;5109011;28;20067;-52
2022/10/09 06:56:11;;;;;;;24.45;11.77;;;11.40;99.90;;;;;;5109331;28;20082;-51
2022/10/09 06:58:39;;;;;;;17.92;11.48;;;11.40;99.90;;;;;;5111363;28;20063;-54
2022/10/09 07:01:11;;;;;;;23.60;12.30;;;11.50;99.90;;;;;;5109451;28;20100;-51
2022/10/09 07:03:41;;;;;;;23.73;12.38;;;11.50;99.90;;;;;;5102614;28;20503;-52
2022/10/09 07:06:17;;;;;;;26.83;12.25;;;11.60;99.90;;;;;;5110898;28;20097;-51
2022/10/09 07:08:46;;;;;;;22.02;12.25;;;11.60;99.90;;;;;;5110733;28;20052;-51
2022/10/09 07:11:16;;;;;;;18.13;10.93;;;11.70;99.90;;;;;;5103131;28;20075;-51
2022/10/09 07:13:43;;;;;;;29.40;12.30;;;11.70;99.90;;;;;;5109934;28;20139;-53
2022/10/09 07:16:10;;;;;;;;;;;11.70;99.90;;;;;;5111863;28;20071;-52
2022/10/09 07:18:38;;;;;;;29.27;11.52;;;11.70;99.90;;;;;;5107882;28;19930;-51
2022/10/09 07:21:07;;;;;;;24.08;11.20;;;11.80;99.90;;;;;;5111666;28;20075;-51
2022/10/09 07:23:34;;;;;;;27.77;11.55;;;11.80;99.90;;;;;;5110103;28;20040;-52
2022/10/09 07:26:08;;;;;;;25.00;12.40;;;11.70;99.90;;;;;;5110033;28;20051;-52
2022/10/09 07:28:34;;;;;;;20.00;11.35;;;11.70;99.90;;;;;;5102259;28;20126;-52
2022/10/09 07:31:03;;;;;;;21.45;10.88;;;11.80;99.90;;;;;;5111299;28;20050;-52
2022/10/09 07:33:30;;;;;;;20.88;11.15;;;11.70;99.90;;;;;;5109377;28;20044;-54
2022/10/09 07:35:59;;;;;;;20.13;10.57;;;11.80;99.90;;;;;;5104406;28;20120;-52
2022/10/09 07:38:26;;;;;;;20.58;10.82;;;11.80;99.90;;;;;;5110214;28;20039;-52
2022/10/09 07:40:53;;;;;;;;;;;11.90;99.90;;;;;;5111684;28;20104;-51
2022/10/09 07:43:20;;;;;;;23.02;10.85;;;11.90;99.90;;;;;;5110095;28;19955;-51
2022/10/09 07:45:47;;;;;;;20.75;11.25;;;12.00;99.90;;;;;;5098476;28;20070;-54
2022/10/09 07:48:14;;;;;;;22.67;10.93;;;12.00;99.90;;;;;;5109914;28;20047;-51
2022/10/09 07:50:40;;;;;;;22.10;11.00;;;12.00;99.90;;;;;;5110466;28;20492;-52
2022/10/09 07:53:07;;;;;;;18.10;11.02;;;12.10;99.90;;;;;;5101855;28;20701;-52
2022/10/09 07:55:35;;;;;;;22.02;11.40;;;12.20;99.90;;;;;;5110618;28;20035;-52
2022/10/09 07:58:01;;;;;;;;;;;12.30;99.90;;;;;;5110640;28;20043;-51
2022/10/09 08:00:28;;;;;;;20.05;10.90;;;12.40;99.90;;;;;;5099118;28;20376;-53
2022/10/09 08:02:55;;;;;;;19.35;9.93;;;12.50;99.90;;;;;;5104716;28;20035;-51
2022/10/09 08:05:21;;;;;;;19.75;11.02;;;12.40;99.90;;;;;;5109996;28;20040;-52
2022/10/09 08:07:48;;;;;;;19.38;10.63;;;12.60;99.90;;;;;;5114151;28;20082;-54
2022/10/09 08:10:15;;;;;;;24.92;11.27;;;12.60;99.90;;;;;;5100915;28;20043;-52
2022/10/09 08:12:42;;;;;;;19.10;11.40;;;12.60;99.90;;;;;;5108456;28;20488;-52
2022/10/09 08:15:08;;;;;;;28.85;12.20;;;12.50;99.90;;;;;;5110283;28;20455;-52
2022/10/09 08:17:35;;;;;;;20.67;10.68;;;12.60;99.90;;;;;;5114180;27;20047;-53
2022/10/09 08:20:02;;;;;;;20.20;11.75;;;12.60;99.90;;;;;;5114462;28;20063;-53
2022/10/09 08:22:29;;;;;;;19.38;11.45;;;12.50;99.90;;;;;;5111571;28;20626;-55
2022/10/09 08:24:56;;;;;;;23.15;11.98;;;12.50;99.90;;;;;;5113565;28;20043;-51
2022/10/09 08:27:23;;;;;;;28.05;12.20;;;12.60;99.90;;;;;;5128794;22;20067;-49
2022/10/09 08:30:04;;;;;;;22.83;11.23;;;12.70;99.90;;;;;;5081393;28;20067;-50
2022/10/09 08:32:39;;;;;;;26.85;12.15;;;12.70;99.90;;;;;;5095293;28;20060;-52
2022/10/09 08:35:07;;;;;;;22.88;11.50;;;12.80;99.90;;;;;;5110040;28;20108;-50
2022/10/09 08:37:33;;;;;;;18.55;11.57;;;12.80;99.90;;;;;;5097305;28;20457;-48
2022/10/09 08:40:00;;;;;;;18.10;11.60;;;12.90;99.90;;;;;;5101621;28;20914;-50
2022/10/09 08:42:43;;;;;;;27.42;12.05;;;13.00;99.90;;;;;;5112716;27;20115;-48
2022/10/09 08:45:15;;;;;;;22.77;11.60;;;13.10;99.90;;;;;;5113929;27;20055;-53
2022/10/09 08:47:44;;;;;;;18.67;10.25;;;13.20;99.90;;;;;;5114028;28;20035;-52
2022/10/09 08:50:46;;;;;;;15.90;10.90;;;13.20;99.90;;;;;;5111210;28;20452;-52
2022/10/09 08:53:24;;;;;;;22.00;10.32;;;13.20;99.90;;;;;;5099310;27;20078;-49
2022/10/09 08:55:56;;;;;;;23.05;9.82;;;13.20;99.90;;;;;;5124792;27;20069;-51
2022/10/09 08:58:32;;;;;;;21.27;10.55;;;13.30;99.90;;;;;;5133746;27;20031;-49
2022/10/09 09:01:26;;;;;;;20.50;10.15;;;13.20;99.90;;;;;;5115348;27;20078;-52
2022/10/09 09:04:28;;;;;;;17.80;9.90;;;13.20;99.90;;;;;;5109589;28;20044;-49
2022/10/09 09:07:11;;;;;;;16.95;9.68;;;13.20;99.90;;;;;;5123921;27;20043;-48
2022/10/09 09:10:03;;;;;;;16.08;9.70;;;13.20;99.90;;;;;;5123533;27;20082;-49
2022/10/09 09:12:48;;;;;;;15.95;8.57;;;13.20;99.90;;;;;;5109381;28;20109;-49
2022/10/09 09:15:37;;;;;;;23.20;10.35;;;13.20;99.90;;;;;;5118986;27;20122;-49
2022/10/09 09:18:17;;;;;;;18.70;9.30;;;13.30;99.90;;;;;;5133372;27;20489;-48
2022/10/09 09:20:54;;;;;;;23.90;10.35;;;13.40;99.90;;;;;;5093209;28;20040;-49
2022/10/09 09:23:28;;;;;;;16.02;9.32;;;13.50;99.90;;;;;;5099742;28;20063;-50
2022/10/09 09:25:55;;;;;;;17.42;9.38;;;13.50;99.90;;;;;;5123017;27;20081;-50
2022/10/09 09:28:21;;;;;;;;;;;13.60;99.90;;;;;;5113454;27;20475;-54
2022/10/09 09:31:01;;;;;;;18.00;9.40;;;13.60;99.90;;;;;;5113384;28;19919;-49
2022/10/09 09:34:04;;;;;;;17.27;8.73;;;13.70;99.90;;;;;;5108660;27;20043;-50
2022/10/09 09:36:54;;;;;;;16.88;9.15;;;13.80;99.90;;;;;;5029764;28;20677;-49
2022/10/09 09:39:24;;;;;;;16.52;8.13;;;14.00;99.90;;;;;;5106634;28;20086;-49
2022/10/09 09:42:19;;;;;;;16.42;7.88;;;14.10;99.90;;;;;;5110775;28;20237;-50
2022/10/09 09:45:00;;;;;;;18.50;8.40;;;14.20;99.90;;;;;;5108752;27;20097;-49
2022/10/09 09:47:44;;;;;;;16.30;8.73;;;14.20;99.90;;;;;;5120539;27;20499;-48
2022/10/09 09:50:11;;;;;;;14.73;8.48;;;14.20;99.90;;;;;;5113721;27;20067;-49
2022/10/09 09:53:14;;;;;;;15.90;8.75;;;14.20;99.90;;;;;;5121166;27;20122;-50
2022/10/09 09:55:41;;;;;;;17.73;8.60;;;14.30;99.90;;;;;;5113733;27;20121;-48
2022/10/09 09:58:16;;;;;;;15.98;7.85;;;14.30;99.90;;;;;;5115270;27;20032;-50
2022/10/09 10:00:56;;;;;;;14.77;7.95;;;14.30;99.90;;;;;;5110322;27;20036;-50
2022/10/09 10:03:24;;;;;;;13.45;8.00;;;14.30;99.90;;;;;;5113787;27;20040;-49
2022/10/09 10:05:51;;;;;;;19.52;9.45;;;14.30;99.90;;;;;;5115071;27;20044;-50
2022/10/09 10:08:31;;;;;;;14.38;8.80;;;14.40;99.90;;;;;;5114103;27;20444;-49
2022/10/09 10:11:00;;;;;;;14.82;8.07;;;14.40;99.90;;;;;;5108514;28;20070;-49
2022/10/09 10:13:34;;;;;;;15.27;8.48;;;14.40;99.90;;;;;;5121646;27;20150;-48
2022/10/09 10:16:01;;;;;;;13.57;8.75;;;14.40;99.90;;;;;;5107199;27;20077;-51
2022/10/09 10:18:35;;;;;;;13.75;7.97;;;14.50;99.90;;;;;;5093872;28;20385;-49
2022/10/09 10:21:06;;;;;;;16.83;9.23;;;14.70;99.90;;;;;;5102337;27;20070;-52
2022/10/09 10:23:40;;;;;;;20.83;9.10;;;14.80;99.90;;;;;;5109049;27;20107;-50
2022/10/09 10:26:20;;;;;;;14.48;8.88;;;14.80;99.90;;;;;;5114641;27;20483;-48
2022/10/09 10:28:55;;;;;;;16.45;8.75;;;14.90;99.90;;;;;;5114838;27;20100;-50
2022/10/09 10:31:39;;;;;;;15.18;8.70;;;14.90;99.90;;;;;;5108857;27;20044;-50
2022/10/09 10:34:16;;;;;;;13.60;8.75;;;15.00;99.90;;;;;;5110873;28;20484;-50
2022/10/09 10:36:44;;;;;;;12.50;8.40;;;15.00;99.90;;;;;;5109067;27;20766;-49
2022/10/09 10:39:22;;;;;;;19.15;8.30;;;14.90;99.90;;;;;;5132148;27;20059;-48
2022/10/09 10:41:52;;;;;;;14.80;8.95;;;14.90;99.90;;;;;;5114344;27;20548;-50
2022/10/09 10:44:42;;;;;;;13.23;7.85;;;14.90;99.90;;;;;;5105633;28;20065;-49
2022/10/09 10:47:19;;;;;;;20.30;8.73;;;15.00;99.90;;;;;;5116629;27;20490;-49
2022/10/09 10:49:46;;;;;;;21.65;8.52;;;15.00;99.90;;;;;;5128768;27;20054;-51
2022/10/09 10:52:38;;;;;;;16.65;8.93;;;15.00;99.90;;;;;;5106207;27;20040;-49
2022/10/09 10:55:47;;;;;;;16.60;8.75;;;15.00;99.90;;;;;;5123729;27;20044;-53
2022/10/09 10:58:31;;;;;;;16.33;8.27;;;14.90;99.90;;;;;;5111443;28;20043;-50
2022/10/09 11:01:18;;;;;;;18.05;8.68;;;14.90;99.90;;;;;;5111196;27;20529;-49
2022/10/09 11:04:07;;;;;;;15.07;8.77;;;14.90;99.90;;;;;;5103554;27;20039;-49
2022/10/09 11:06:38;;;;;;;18.77;9.20;;;14.90;99.90;;;;;;5112174;27;20474;-49
2022/10/09 11:09:23;;;;;;;16.52;8.70;;;14.90;99.90;;;;;;5106152;27;20036;-49
2022/10/09 11:12:31;;;;;;;15.55;8.18;;;14.90;99.90;;;;;;5106508;28;20046;-53
2022/10/09 11:15:25;;;;;;;13.15;8.45;;;14.90;99.90;;;;;;5045358;28;20110;-50
2022/10/09 11:18:02;;;;;;;15.63;8.80;;;14.90;99.90;;;;;;5097055;27;20126;-53
2022/10/09 11:21:00;;;;;;;19.73;8.93;;;14.80;99.90;;;;;;5100194;28;20084;-50
2022/10/09 11:23:33;;;;;;;16.42;8.00;;;14.80;99.90;;;;;;5095786;28;20645;-48
2022/10/09 11:26:35;;;;;;;13.18;7.00;;;14.80;99.90;;;;;;5114854;28;20095;-50
2022/10/09 11:29:14;;;;;;;21.58;8.35;;;14.90;99.90;;;;;;5097082;28;20109;-48
2022/10/09 11:31:55;;;;;;;13.43;7.78;;;14.90;99.90;;;;;;5117551;28;20093;-49
2022/10/09 11:34:33;;;;;;;12.15;7.97;;;14.70;99.90;;;;;;5116721;28;20044;-49
2022/10/09 11:37:02;;;;;;;10.02;7.88;;;14.70;99.90;;;;;;5109400;28;20093;-48
2022/10/09 11:39:31;;;;;;;12.60;7.20;;;14.70;99.90;;;;;;5116722;27;20084;-51
2022/10/09 11:41:59;;;;;;;14.73;8.63;;;14.80;99.90;;;;;;5115891;27;20035;-50
2022/10/09 11:44:52;;;;;;;15.90;8.18;;;14.70;99.90;;;;;;5096033;28;20052;-48
2022/10/09 11:47:38;;;;;;;18.10;9.60;;;14.80;99.90;;;;;;5122611;27;20663;-49
2022/10/09 11:50:23;;;;;;;23.35;10.68;;;14.80;99.90;;;;;;5111591;28;20126;-49
2022/10/09 11:52:50;;;;;;;14.20;8.48;;;14.70;99.90;;;;;;5109393;28;20048;-50
2022/10/09 11:55:19;;;;;;;15.50;8.30;;;14.70;99.90;;;;;;5111057;27;20089;-49
2022/10/09 11:57:46;;;;;;;15.93;7.85;;;14.70;99.90;;;;;;5112915;28;20048;-51
2022/10/09 12:00:14;;;;;;;11.73;7.72;;;14.70;99.90;;;;;;5124421;27;20043;-51
2022/10/09 12:02:42;;;;;;;13.90;8.07;;;14.70;99.90;;;;;;5115029;27;20066;-49
2022/10/09 12:05:32;;;;;;;10.88;7.57;;;14.70;99.90;;;;;;5113788;27;20395;-49
2022/10/09 12:08:38;;;;;;;14.90;8.02;;;14.90;99.90;;;;;;5109237;27;20039;-50
2022/10/09 12:11:07;;;;;;;17.85;8.63;;;14.90;99.90;;;;;;5100546;27;20109;-49
2022/10/09 12:13:37;;;;;;;13.40;7.90;;;14.90;99.90;;;;;;5113219;28;20039;-48
2022/10/09 12:16:07;;;;;;;12.20;8.15;;;14.90;99.90;;;;;;5104506;28;20597;-48
2022/10/09 12:18:37;;;;;;;14.88;8.68;;;14.90;99.90;;;;;;5114346;28;20558;-48
2022/10/09 12:21:07;;;;;;;17.10;7.93;;;15.00;99.90;;;;;;5108880;28;20493;-48
2022/10/09 12:23:38;;;;;;;15.95;8.05;;;15.00;99.90;;;;;;5114719;28;20063;-52
2022/10/09 12:26:11;;;;;;;14.43;7.63;;;15.10;99.90;;;;;;5112610;28;20495;-50
2022/10/09 12:28:42;;;;;;;15.80;9.07;;;15.20;99.90;;;;;;5113766;28;20035;-48
2022/10/09 12:31:35;;;;;;;20.27;8.70;;;15.20;99.90;;;;;;5104491;28;20464;-50
2022/10/09 12:34:31;;;;;;;16.80;8.98;;;15.30;99.90;;;;;;5113893;28;20114;-50
2022/10/09 12:37:20;;;;;;;13.35;8.40;;;15.40;99.90;;;;;;5109069;27;20075;-49
2022/10/09 12:39:48;;;;;;;13.77;7.40;;;15.70;99.90;;;;;;5134659;27;20133;-49
2022/10/09 12:42:21;;;;;;;15.00;8.13;;;15.70;99.90;;;;;;5114948;27;20070;-52
2022/10/09 12:44:52;;;;;;;11.00;7.70;;;15.80;99.90;;;;;;5099449;27;20436;-49
2022/10/09 12:47:25;;;;;;;15.68;7.03;;;15.80;99.90;;;;;;5132677;27;20104;-48
2022/10/09 12:49:57;;;;;;;12.63;7.05;;;16.00;99.90;;;;;;5130926;27;20043;-48
2022/10/09 12:52:24;;;;;;;9.70;6.72;;;16.10;99.90;;;;;;5113543;28;20051;-50
2022/10/09 12:54:51;;;;;;;10.93;6.95;;;16.30;99.90;;;;;;5100083;27;20054;-53
2022/10/09 12:57:19;;;;;;;13.27;8.43;;;16.20;99.90;;;;;;5116056;27;20053;-51
2022/10/09 12:59:52;;;;;;;12.30;7.18;;;16.10;99.90;;;;;;5127264;27;20040;-49
2022/10/09 13:02:20;;;;;;;12.13;7.45;;;16.20;99.90;;;;;;5108787;27;20114;-48